createdAt,value
2022-10-12T00:03:14.174Z,101804.72
2022-10-12T00:08:21.191Z,101797.94
2022-10-12T00:13:28.058Z,101809.38
2022-10-12T00:18:38.132Z,101800.66
2022-10-12T00:23:46.981Z,101806.00
2022-10-12T00:28:58.688Z,101806.34
2022-10-12T00:34:06.717Z,101807.66
2022-10-12T00:39:13.590Z,101815.56
2022-10-12T00:44:43.641Z,101812.44
2022-10-12T00:49:57.993Z,101817.28
2022-10-12T00:55:06.427Z,101819.88
2022-10-12T01:00:15.118Z,101821.38
2022-10-12T01:05:24.618Z,101834.75
2022-10-12T01:10:35.085Z,101830.25
2022-10-12T01:15:49.249Z,101829.13
2022-10-12T01:21:23.060Z,101824.59
2022-10-12T01:27:18.262Z,101823.03
2022-10-12T01:32:32.599Z,101828.75
2022-10-12T01:37:50.702Z,101835.25
2022-10-12T01:42:57.688Z,101838.34
2022-10-12T01:48:06.426Z,101837.81
2022-10-12T01:53:29.635Z,101847.91
2022-10-12T01:58:56.577Z,101849.72
2022-10-12T02:04:12.711Z,101841.75
2022-10-12T02:09:27.730Z,101850.06
2022-10-12T02:14:40.173Z,101847.59
2022-10-12T02:19:52.640Z,101846.91
2022-10-12T02:25:01.636Z,101851.16
2022-10-12T02:30:13.199Z,101860.44
2022-10-12T02:35:29.448Z,101857.78
2022-10-12T02:40:40.117Z,101857.50
2022-10-12T02:45:49.876Z,101861.47
2022-10-12T02:51:00.729Z,101859.97
2022-10-12T02:56:09.482Z,101861.00
2022-10-12T03:01:17.354Z,101854.41
2022-10-12T03:06:25.330Z,101860.38
2022-10-12T03:11:31.351Z,101848.66
2022-10-12T03:16:37.565Z,101848.09
2022-10-12T03:21:44.924Z,101850.72
2022-10-12T03:31:59.188Z,101855.28
2022-10-12T03:37:06.487Z,101858.25
2022-10-12T03:42:12.251Z,101858.56
2022-10-12T03:47:22.106Z,101861.44
2022-10-12T03:52:30.343Z,101871.97
2022-10-12T03:57:37.275Z,101858.91
2022-10-12T04:02:43.595Z,101872.97
2022-10-12T04:07:50.890Z,101865.22
2022-10-12T04:12:56.793Z,101863.53
2022-10-12T04:18:02.751Z,101868.50
2022-10-12T04:23:10.200Z,101869.44
2022-10-12T04:28:17.080Z,101865.75
2022-10-12T04:33:23.142Z,101872.81
2022-10-12T04:38:30.537Z,101861.22
2022-10-12T04:43:36.374Z,101880.22
2022-10-12T04:48:42.336Z,101878.50
2022-10-12T04:53:49.785Z,101889.38
2022-10-12T05:07:07.562Z,101886.19
2022-10-12T05:13:05.211Z,101895.97
2022-10-12T05:18:36.072Z,101900.31
2022-10-12T05:23:43.802Z,101908.34
2022-10-12T05:28:52.310Z,101910.13
2022-10-12T05:34:47.869Z,101916.66
2022-10-12T05:40:20.852Z,101908.22
2022-10-12T05:45:54.064Z,101911.66
2022-10-12T05:51:29.170Z,101913.19
2022-10-12T05:57:06.736Z,101924.63
2022-10-12T06:02:17.635Z,101929.44
2022-10-12T06:08:13.880Z,101923.75
2022-10-12T06:13:47.814Z,101925.53
2022-10-12T06:19:24.289Z,101930.81
2022-10-12T06:24:57.209Z,101923.22
2022-10-12T06:30:04.292Z,101923.31
2022-10-12T06:35:13.522Z,101933.31
2022-10-12T06:41:39.488Z,101939.69
2022-10-12T06:54:01.783Z,101950.72
2022-10-12T06:59:13.186Z,101957.00
2022-10-12T07:04:19.780Z,101953.72
2022-10-12T07:09:32.160Z,101956.50
2022-10-12T07:14:42.180Z,101954.13
2022-10-12T07:20:18.120Z,101954.44
2022-10-12T07:25:28.092Z,101950.34
2022-10-12T07:31:03.556Z,101948.94
2022-10-12T07:36:14.731Z,101948.28
2022-10-12T07:41:25.840Z,101946.00
2022-10-12T07:46:32.622Z,101949.03
2022-10-12T07:51:46.690Z,101940.63
2022-10-12T07:58:09.055Z,101945.34
2022-10-12T08:03:42.074Z,101939.44
2022-10-12T08:08:48.941Z,101940.47
2022-10-12T08:13:56.352Z,101940.81
2022-10-12T08:19:06.521Z,101935.88
2022-10-12T08:24:18.024Z,101931.78
2022-10-12T08:29:28.493Z,101927.69
2022-10-12T08:35:29.376Z,101926.31
2022-10-12T08:41:08.911Z,101923.94
2022-10-12T08:53:59.369Z,101927.88
2022-10-12T08:59:31.564Z,101927.16
2022-10-12T09:05:05.724Z,101924.69
2022-10-12T09:10:46.399Z,101921.34
2022-10-12T09:16:01.670Z,101925.72
2022-10-12T09:21:15.409Z,101925.81
2022-10-12T09:27:18.519Z,101915.53
2022-10-12T09:32:54.204Z,101915.63
2022-10-12T09:38:26.106Z,101914.84
2022-10-12T09:43:34.301Z,101919.22
2022-10-12T09:48:57.291Z,101915.81
2022-10-12T09:54:08.781Z,101911.53
2022-10-12T10:00:34.650Z,101906.38
2022-10-12T10:06:32.830Z,101899.44
2022-10-12T10:12:15.746Z,101895.97
2022-10-12T10:17:28.995Z,101908.13
2022-10-12T10:22:37.251Z,101909.88
2022-10-12T10:28:24.311Z,101894.25
2022-10-12T10:33:36.867Z,101894.25
2022-10-12T10:38:59.531Z,101890.78
2022-10-12T10:44:07.286Z,101882.06
2022-10-12T10:49:32.277Z,101882.06
2022-10-12T10:55:18.220Z,101882.06
2022-10-12T11:00:41.134Z,101877.69
2022-10-12T11:06:21.021Z,101862.88
2022-10-12T11:11:38.170Z,101865.41
2022-10-12T11:16:51.192Z,101860.16
2022-10-12T11:22:31.452Z,101865.38
2022-10-12T11:28:04.285Z,101858.38
2022-10-12T11:33:17.212Z,101850.53
2022-10-12T11:39:21.823Z,101845.25
2022-10-12T11:45:04.198Z,101849.50
2022-10-12T11:50:31.026Z,101839.75
2022-10-12T11:56:09.764Z,101837.06
2022-10-12T12:01:54.060Z,101840.56
2022-10-12T12:08:13.951Z,101835.34
2022-10-12T12:13:45.369Z,101837.84
2022-10-12T12:19:42.067Z,101835.19
2022-10-12T12:25:06.788Z,101832.50
2022-10-12T12:30:41.129Z,101832.41
2022-10-12T12:35:59.912Z,101833.28
2022-10-12T12:41:14.059Z,101823.66
2022-10-12T12:53:19.051Z,101822.72
2022-10-12T13:13:16.598Z,101832.28
2022-10-12T13:18:49.242Z,101828.03
2022-10-12T13:24:04.853Z,101837.63
2022-10-12T13:29:23.487Z,101821.06
2022-10-12T13:34:36.714Z,101823.59
2022-10-12T13:39:47.234Z,101825.38
2022-10-12T13:44:55.139Z,101820.16
2022-10-12T13:50:01.490Z,101825.38
2022-10-12T13:55:18.380Z,101822.72
2022-10-12T14:00:27.921Z,101818.22
2022-10-12T14:05:35.604Z,101816.41
2022-10-12T14:10:44.798Z,101816.47
2022-10-12T14:15:52.438Z,101825.25
2022-10-12T14:21:12.331Z,101821.00
2022-10-12T14:26:30.915Z,101830.69
2022-10-12T14:31:53.406Z,101831.56
2022-10-12T14:37:06.167Z,101833.34
2022-10-12T14:42:22.873Z,101822.00
2022-10-12T14:47:33.618Z,101828.09
2022-10-12T14:52:44.538Z,101817.69
2022-10-12T14:57:51.990Z,101820.31
2022-10-12T15:03:00.106Z,101818.53
2022-10-12T15:08:09.345Z,101821.19
2022-10-12T15:13:15.611Z,101830.78
2022-10-12T15:18:22.883Z,101824.72
2022-10-12T15:23:29.006Z,101829.09
2022-10-12T15:28:35.245Z,101827.41
2022-10-12T15:33:44.052Z,101827.44
2022-10-12T15:38:49.832Z,101824.84
2022-10-12T15:43:55.703Z,101828.38
2022-10-12T15:49:03.343Z,101823.19
2022-10-12T15:54:09.580Z,101822.34
2022-10-12T15:59:15.634Z,101828.47
2022-10-12T16:04:23.385Z,101822.38
2022-10-12T16:09:29.346Z,101828.53
2022-10-12T16:14:35.470Z,101825.97
2022-10-12T16:19:43.045Z,101834.69
2022-10-12T16:24:49.095Z,101826.88
2022-10-12T16:29:55.080Z,101829.56
2022-10-12T16:35:02.545Z,101833.13
2022-10-12T16:40:11.650Z,101828.78
2022-10-12T16:45:17.811Z,101829.63
2022-10-12T16:50:27.052Z,101824.44
2022-10-12T16:55:33.075Z,101824.44
2022-10-12T17:00:40.467Z,101820.97
2022-10-12T17:05:48.294Z,101829.69
2022-10-12T17:10:54.280Z,101834.06
2022-10-12T17:16:14.082Z,101825.38
2022-10-12T17:21:21.519Z,101835.91
2022-10-12T17:26:28.595Z,101833.28
2022-10-12T17:31:35.549Z,101830.72
2022-10-12T17:36:43.064Z,101828.97
2022-10-12T17:41:49.841Z,101833.31
2022-10-12T17:46:55.992Z,101835.94
2022-10-12T17:52:04.347Z,101816.78
2022-10-12T17:57:11.268Z,101815.91
2022-10-12T18:02:17.935Z,101815.91
2022-10-12T18:07:27.755Z,101817.75
2022-10-12T18:12:36.372Z,101818.66
2022-10-12T18:17:43.041Z,101818.63
2022-10-12T18:22:51.246Z,101828.19
2022-10-12T18:27:57.420Z,101823.81
2022-10-12T18:33:04.164Z,101826.44
2022-10-12T18:38:14.991Z,101831.69
2022-10-12T18:43:23.004Z,101836.03
2022-10-12T18:48:31.220Z,101830.81
2022-10-12T18:53:39.952Z,101823.00
2022-10-12T18:58:46.869Z,101830.81
2022-10-12T19:03:55.292Z,101832.56
2022-10-12T19:09:03.731Z,101838.63
2022-10-12T19:14:14.938Z,101835.16
2022-10-12T19:19:22.012Z,101842.97
2022-10-12T19:24:30.016Z,101849.91
2022-10-12T19:29:37.101Z,101840.31
2022-10-12T19:34:43.981Z,101845.50
2022-10-12T19:39:53.292Z,101848.09
2022-10-12T19:45:03.391Z,101856.56
2022-10-12T19:50:11.315Z,101854.81
2022-10-12T19:55:20.257Z,101849.59
2022-10-12T20:00:27.526Z,101847.91
2022-10-12T20:05:34.885Z,101848.78
2022-10-12T20:10:43.144Z,101847.72
2022-10-12T20:15:54.425Z,101842.41
2022-10-12T20:21:02.300Z,101847.69
2022-10-12T20:26:12.521Z,101851.03
2022-10-12T20:31:19.709Z,101849.41
2022-10-12T20:36:28.417Z,101854.66
2022-10-12T20:41:36.018Z,101855.19
2022-10-12T20:46:44.653Z,101850.94
2022-10-12T20:51:51.655Z,101847.50
2022-10-12T20:57:00.644Z,101849.28
2022-10-12T21:02:06.830Z,101848.94
2022-10-12T21:07:17.565Z,101848.06
2022-10-12T21:12:25.304Z,101850.53
2022-10-12T21:17:31.346Z,101848.53
2022-10-12T21:22:37.523Z,101845.28
2022-10-12T21:27:46.241Z,101857.44
2022-10-12T21:32:52.319Z,101850.31
2022-10-12T21:37:58.265Z,101855.50
2022-10-12T21:43:05.811Z,101859.03
2022-10-12T21:48:11.867Z,101864.53
2022-10-12T21:53:18.547Z,101862.16
2022-10-12T21:58:26.285Z,101861.41
2022-10-12T22:03:33.055Z,101869.06
2022-10-12T22:08:39.130Z,101875.09
2022-10-12T22:13:54.782Z,101873.59
2022-10-12T22:19:01.973Z,101877.84
2022-10-12T22:24:14.209Z,101885.31
2022-10-12T22:29:21.779Z,101875.09
2022-10-12T22:34:28.866Z,101875.44
2022-10-12T22:39:34.978Z,101876.28
2022-10-12T22:44:42.475Z,101871.75
2022-10-12T22:49:48.754Z,101866.38
2022-10-12T22:54:55.062Z,101870.22
2022-10-12T23:00:02.812Z,101866.56
2022-10-12T23:05:11.328Z,101869.16
2022-10-12T23:10:18.174Z,101866.50
2022-10-12T23:15:25.869Z,101869.81
2022-10-12T23:20:32.389Z,101870.56
2022-10-12T23:25:40.906Z,101875.16
2022-10-12T23:30:49.491Z,101875.69
2022-10-12T23:36:00.161Z,101873.06
2022-10-12T23:41:07.178Z,101866.91
2022-10-12T23:46:14.990Z,101864.47
2022-10-12T23:51:22.113Z,101866.84
2022-10-12T23:56:28.527Z,101867.41
